Time;durP1;ratioP1;P1;durP2;ratioP2;P2;SDS_P1;SDS_P2;PMS_P1;PMS_P2;Temp;Humidity;BMP_temperature;BMP_pressure;BME280_temperature;BME280_humidity;BME280_pressure;Samples;Min_cycle;Max_cycle;Signal;HPM_P1;HPM_P2
2021/04/02 00:00:48;;;;;;;2.30;1.30;;;12.60;57.80;;;;;;5092465;28;20063;-85
2021/04/02 00:03:24;;;;;;;2.50;1.50;;;12.50;57.80;;;;;;5081078;28;20032;-84
2021/04/02 00:05:51;;;;;;;2.35;1.40;;;12.50;57.90;;;;;;5093213;28;20203;-85
2021/04/02 00:08:17;;;;;;;2.00;1.33;;;12.50;57.90;;;;;;5089077;28;20040;-85
2021/04/02 00:10:45;;;;;;;2.70;1.50;;;12.40;57.90;;;;;;5063210;28;20096;-85
2021/04/02 00:13:13;;;;;;;1.92;1.50;;;12.40;58.00;;;;;;5071138;28;20032;-85
2021/04/02 00:15:39;;;;;;;1.67;1.33;;;12.30;58.00;;;;;;5092320;28;20039;-85
2021/04/02 00:18:08;;;;;;;2.65;1.45;;;12.30;58.00;;;;;;5092299;28;20453;-85
2021/04/02 00:20:34;;;;;;;2.30;1.70;;;12.30;58.10;;;;;;5072559;28;20024;-84
2021/04/02 00:23:00;;;;;;;2.08;1.40;;;12.20;58.00;;;;;;5064855;28;20710;-85
2021/04/02 00:25:26;;;;;;;2.83;1.60;;;12.20;58.10;;;;;;5039359;28;20028;-84
2021/04/02 00:27:52;;;;;;;2.22;1.45;;;12.20;58.10;;;;;;5066380;28;20118;-85
2021/04/02 00:30:27;;;;;;;2.28;1.30;;;12.10;58.10;;;;;;5092715;28;21276;-85
2021/04/02 00:32:53;;;;;;;2.20;1.35;;;12.10;58.20;;;;;;5086854;28;20028;-84
2021/04/02 00:35:19;;;;;;;2.22;1.40;;;12.10;58.20;;;;;;5034129;28;20021;-85
2021/04/02 00:37:45;;;;;;;2.55;1.52;;;12.00;58.20;;;;;;5080367;28;20031;-85
2021/04/02 00:40:14;;;;;;;2.28;1.42;;;12.00;58.20;;;;;;5075606;28;20029;-84
2021/04/02 00:42:40;;;;;;;2.85;1.73;;;11.90;58.30;;;;;;5068855;28;20033;-85
2021/04/02 00:45:07;;;;;;;1.75;1.40;;;11.90;58.30;;;;;;5079612;28;20445;-85
2021/04/02 00:47:33;;;;;;;2.08;1.70;;;11.90;58.40;;;;;;5075642;28;20028;-85
2021/04/02 00:49:58;;;;;;;2.40;1.50;;;11.90;58.40;;;;;;5064709;28;20033;-84
2021/04/02 00:52:24;;;;;;;2.15;1.42;;;11.80;58.40;;;;;;5075815;28;20090;-84
2021/04/02 00:54:50;;;;;;;2.72;1.58;;;11.80;59.10;;;;;;5075843;28;20040;-85
2021/04/02 00:57:16;;;;;;;3.72;1.67;;;11.80;58.40;;;;;;5055663;28;20055;-85
2021/04/02 00:59:42;;;;;;;1.42;1.20;;;11.70;58.50;;;;;;5075824;28;20029;-84
2021/04/02 01:02:08;;;;;;;1.50;1.40;;;11.60;58.50;;;;;;5079565;28;20020;-84
2021/04/02 01:04:34;;;;;;;2.78;1.77;;;11.60;58.60;;;;;;5092969;28;20028;-85
2021/04/02 01:07:01;;;;;;;1.30;1.20;;;11.60;58.60;;;;;;5085322;28;20017;-84
2021/04/02 01:09:27;;;;;;;2.00;1.60;;;11.60;58.60;;;;;;5076950;28;20024;-85
2021/04/02 01:11:53;;;;;;;2.25;1.50;;;11.50;58.60;;;;;;5076557;28;20074;-85
2021/04/02 01:14:19;;;;;;;2.00;1.33;;;11.50;58.70;;;;;;5054250;28;20039;-85
2021/04/02 01:16:46;;;;;;;2.78;1.60;;;11.40;58.70;;;;;;5092642;28;20052;-84
2021/04/02 01:19:28;;;;;;;3.63;1.63;;;11.40;58.70;;;;;;5107138;28;20064;-85
2021/04/02 01:22:27;;;;;;;2.53;1.60;;;11.40;58.80;;;;;;5109221;28;20031;-84
2021/04/02 01:25:12;;;;;;;2.15;1.45;;;11.30;58.90;;;;;;5084035;28;20040;-85
2021/04/02 01:27:53;;;;;;;1.75;1.50;;;11.30;58.90;;;;;;5084531;28;20051;-84
2021/04/02 01:30:19;;;;;;;2.00;1.73;;;11.30;58.80;;;;;;5071158;28;20044;-84
2021/04/02 01:32:48;;;;;;;1.80;1.40;;;11.30;58.90;;;;;;5084237;28;20483;-85
2021/04/02 01:35:28;;;;;;;2.05;1.67;;;11.20;58.90;;;;;;5066285;28;20028;-85
2021/04/02 01:38:03;;;;;;;2.85;1.45;;;11.10;59.00;;;;;;5095181;28;20056;-86
2021/04/02 01:40:35;;;;;;;2.13;1.45;;;11.10;59.00;;;;;;5075781;28;20040;-85
2021/04/02 01:43:06;;;;;;;4.03;1.55;;;11.10;59.00;;;;;;5077993;28;20112;-84
2021/04/02 01:45:36;;;;;;;4.05;1.80;;;11.00;59.00;;;;;;5076490;28;20032;-85
2021/04/02 01:48:05;;;;;;;2.33;1.60;;;11.00;59.10;;;;;;5080511;28;20024;-84
2021/04/02 01:50:35;;;;;;;3.58;1.63;;;11.00;59.20;;;;;;5076536;28;20042;-84
2021/04/02 01:53:04;;;;;;;3.25;1.42;;;11.00;59.20;;;;;;5095244;28;20113;-85
2021/04/02 01:55:30;;;;;;;2.30;1.55;;;10.90;59.20;;;;;;5078413;28;20089;-85
2021/04/02 01:57:57;;;;;;;1.48;1.38;;;10.90;59.20;;;;;;5050704;28;20052;-85
2021/04/02 02:00:34;;;;;;;2.83;1.65;;;10.90;59.30;;;;;;5050863;28;20078;-85
2021/04/02 02:03:01;;;;;;;2.65;1.50;;;10.80;59.20;;;;;;5082398;28;20024;-85
2021/04/02 02:05:31;;;;;;;2.30;1.50;;;10.80;59.20;;;;;;5064997;28;20063;-85
2021/04/02 02:08:03;;;;;;;2.33;1.50;;;10.80;59.30;;;;;;5061932;28;20989;-86
2021/04/02 02:10:33;;;;;;;1.67;1.40;;;10.80;59.30;;;;;;5094563;28;20040;-85
2021/04/02 02:13:00;;;;;;;3.08;1.70;;;10.70;59.30;;;;;;5054067;28;20024;-85
2021/04/02 02:15:40;;;;;;;2.72;1.80;;;10.70;59.40;;;;;;5060914;28;20088;-85
2021/04/02 02:18:12;;;;;;;2.80;1.52;;;10.60;59.30;;;;;;5078219;28;20020;-84
2021/04/02 02:20:43;;;;;;;2.50;1.60;;;10.60;59.40;;;;;;5091733;28;20484;-84
2021/04/02 02:23:12;;;;;;;2.72;1.60;;;10.60;59.40;;;;;;5085130;28;20597;-85
2021/04/02 02:25:38;;;;;;;4.15;1.70;;;10.50;59.40;;;;;;5094801;28;20498;-84
2021/04/02 02:28:07;;;;;;;1.98;1.58;;;10.50;59.50;;;;;;5069410;28;20035;-85
2021/04/02 02:30:34;;;;;;;1.75;1.40;;;10.50;59.50;;;;;;5087191;28;20021;-85
2021/04/02 02:33:13;;;;;;;1.52;1.40;;;10.40;59.50;;;;;;5079473;28;20336;-85
2021/04/02 02:35:47;;;;;;;2.80;1.60;;;10.40;59.50;;;;;;5077639;28;20485;-85
2021/04/02 02:38:14;;;;;;;2.53;1.40;;;10.40;59.50;;;;;;5077644;28;20027;-84
2021/04/02 02:40:42;;;;;;;2.03;1.55;;;10.40;59.60;;;;;;5064082;28;20017;-84
2021/04/02 02:43:08;;;;;;;1.55;1.30;;;10.40;59.60;;;;;;5107845;28;20039;-85
2021/04/02 02:45:35;;;;;;;2.28;1.55;;;10.30;59.60;;;;;;5119957;27;20040;-85
2021/04/02 02:48:03;;;;;;;1.48;1.30;;;10.30;59.60;;;;;;5077459;28;20095;-85
2021/04/02 02:50:36;;;;;;;3.88;1.63;;;10.30;59.70;;;;;;5085492;28;20135;-84
2021/04/02 02:53:05;;;;;;;2.55;1.73;;;10.20;59.70;;;;;;5077101;28;20059;-84
2021/04/02 02:55:36;;;;;;;2.72;1.67;;;10.20;59.70;;;;;;5069424;28;20056;-85
2021/04/02 02:58:05;;;;;;;1.48;1.27;;;10.20;59.80;;;;;;5063293;28;20048;-85
2021/04/02 03:00:36;;;;;;;2.35;1.50;;;10.20;59.80;;;;;;5077680;28;20156;-84
2021/04/02 03:03:07;;;;;;;1.75;1.23;;;10.10;59.80;;;;;;5065139;28;20020;-84
2021/04/02 03:05:35;;;;;;;3.35;1.60;;;10.10;59.80;;;;;;5074761;28;20107;-84
2021/04/02 03:08:05;;;;;;;1.35;1.20;;;10.10;59.80;;;;;;5077192;28;20036;-85
2021/04/02 03:10:36;;;;;;;1.58;1.48;;;10.00;59.90;;;;;;5076966;28;20546;-85
2021/04/02 03:13:03;;;;;;;2.03;1.30;;;10.00;59.90;;;;;;5105968;28;20093;-84
2021/04/02 03:15:31;;;;;;;1.58;1.35;;;10.00;59.90;;;;;;5075899;28;20031;-85
2021/04/02 03:18:01;;;;;;;2.20;1.35;;;10.00;60.00;;;;;;5076770;28;20111;-85
2021/04/02 03:20:29;;;;;;;2.00;1.40;;;10.00;60.00;;;;;;5097090;28;20047;-86
2021/04/02 03:22:57;;;;;;;2.63;1.70;;;10.00;60.00;;;;;;5070953;28;20020;-86
2021/04/02 03:25:27;;;;;;;1.80;1.33;;;9.90;60.00;;;;;;5077951;28;20028;-86
2021/04/02 03:28:04;;;;;;;2.75;1.60;;;9.90;60.10;;;;;;5101829;28;20020;-84
2021/04/02 03:30:38;;;;;;;2.22;1.55;;;9.90;60.10;;;;;;5073919;28;20028;-85
2021/04/02 03:33:26;;;;;;;2.97;1.55;;;9.90;60.10;;;;;;5080394;28;20029;-84
2021/04/02 03:36:08;;;;;;;2.92;1.48;;;9.80;60.20;;;;;;5073035;28;20128;-85
2021/04/02 03:38:41;;;;;;;1.77;1.38;;;9.80;60.20;;;;;;5069806;28;20461;-85
2021/04/02 03:41:11;;;;;;;1.85;1.48;;;9.80;60.20;;;;;;5073963;28;20025;-86
2021/04/02 03:43:43;;;;;;;1.70;1.30;;;9.70;60.20;;;;;;5068592;28;20032;-85
2021/04/02 03:46:10;;;;;;;2.97;1.63;;;9.70;60.30;;;;;;5092820;28;20121;-85
2021/04/02 03:48:41;;;;;;;1.88;1.38;;;9.70;60.40;;;;;;5077096;28;20047;-84
2021/04/02 03:51:11;;;;;;;2.40;1.55;;;9.70;60.40;;;;;;5076279;28;20076;-85
2021/04/02 03:53:47;;;;;;;2.33;1.42;;;9.70;61.00;;;;;;5075825;28;20487;-85
2021/04/02 03:56:17;;;;;;;2.53;1.80;;;9.60;60.40;;;;;;5093417;28;20107;-84
2021/04/02 03:58:45;;;;;;;2.25;1.50;;;9.60;60.40;;;;;;5072506;28;20611;-85
2021/04/02 04:01:14;;;;;;;2.33;1.48;;;9.60;60.40;;;;;;5075151;28;20093;-85
2021/04/02 04:03:44;;;;;;;2.15;1.60;;;9.60;60.50;;;;;;5075817;28;20428;-85
2021/04/02 04:06:16;;;;;;;2.35;1.60;;;9.50;60.50;;;;;;5071895;28;20026;-84
2021/04/02 04:08:44;;;;;;;1.58;1.20;;;9.50;60.50;;;;;;5092692;28;20112;-84
2021/04/02 04:11:14;;;;;;;2.55;1.60;;;9.50;60.50;;;;;;5068392;28;20028;-85
2021/04/02 04:13:44;;;;;;;2.38;1.60;;;9.50;60.60;;;;;;5091575;28;20115;-84
2021/04/02 04:16:12;;;;;;;2.72;1.40;;;9.50;60.60;;;;;;5072072;28;20032;-85
2021/04/02 04:18:41;;;;;;;1.40;1.30;;;9.40;60.60;;;;;;5073045;28;20024;-84
2021/04/02 04:21:08;;;;;;;2.45;1.58;;;9.40;60.60;;;;;;5092787;28;20107;-85
2021/04/02 04:23:45;;;;;;;3.47;1.73;;;9.40;60.70;;;;;;5059884;28;20060;-84
2021/04/02 04:26:13;;;;;;;2.00;1.42;;;9.40;60.70;;;;;;5092989;28;20031;-84
2021/04/02 04:28:41;;;;;;;1.98;1.40;;;9.40;60.80;;;;;;5080935;28;20029;-83
2021/04/02 04:31:09;;;;;;;1.98;1.42;;;9.40;60.80;;;;;;5073123;28;20016;-84
2021/04/02 04:33:37;;;;;;;3.58;1.85;;;9.30;60.70;;;;;;5066555;28;20024;-85
2021/04/02 04:36:06;;;;;;;2.13;1.50;;;9.30;60.80;;;;;;5092087;28;20060;-83
2021/04/02 04:38:33;;;;;;;2.38;1.70;;;9.30;60.80;;;;;;5092457;28;20081;-84
2021/04/02 04:40:59;;;;;;;2.63;1.83;;;9.30;60.80;;;;;;5075049;28;20036;-84
2021/04/02 04:43:26;;;;;;;2.38;1.75;;;9.30;60.90;;;;;;5076668;28;20473;-84
2021/04/02 04:45:55;;;;;;;2.40;1.70;;;9.30;60.90;;;;;;5075851;28;20047;-84
2021/04/02 04:48:21;;;;;;;2.03;1.48;;;9.30;60.90;;;;;;5058406;28;20035;-85
2021/04/02 04:50:47;;;;;;;4.05;1.90;;;9.20;60.90;;;;;;5084567;28;20025;-84
2021/04/02 04:53:20;;;;;;;2.47;1.70;;;9.20;60.90;;;;;;5074722;28;20028;-85
2021/04/02 04:55:48;;;;;;;2.10;1.50;;;9.20;61.00;;;;;;5091396;28;20025;-84
2021/04/02 04:58:16;;;;;;;2.65;1.73;;;9.20;61.00;;;;;;5087424;28;20055;-83
2021/04/02 05:00:45;;;;;;;1.98;1.70;;;9.20;61.00;;;;;;5084742;28;20104;-81
2021/04/02 05:03:20;;;;;;;2.53;2.05;;;9.20;61.10;;;;;;5095731;28;20149;-83
2021/04/02 05:05:50;;;;;;;1.63;1.50;;;9.10;61.10;;;;;;5084517;28;20043;-86
2021/04/02 05:08:19;;;;;;;1.80;1.60;;;9.10;61.10;;;;;;5091591;28;20124;-85
2021/04/02 05:10:49;;;;;;;3.28;1.83;;;9.10;61.10;;;;;;5095094;28;20028;-83
2021/04/02 05:13:19;;;;;;;2.40;1.70;;;9.10;61.10;;;;;;5076916;28;20477;-83
2021/04/02 05:15:45;;;;;;;2.20;1.40;;;9.10;61.10;;;;;;5089783;28;20077;-84
2021/04/02 05:18:13;;;;;;;3.63;1.90;;;9.00;61.10;;;;;;5078026;28;20081;-83
2021/04/02 05:20:42;;;;;;;2.38;1.70;;;9.00;61.10;;;;;;5092874;28;20025;-83
2021/04/02 05:23:13;;;;;;;3.47;1.50;;;9.00;61.10;;;;;;5080901;28;20119;-83
2021/04/02 05:25:39;;;;;;;3.03;1.65;;;9.00;61.20;;;;;;5089364;28;20061;-84
2021/04/02 05:28:06;;;;;;;1.60;1.40;;;9.00;61.20;;;;;;5092714;28;20059;-84
2021/04/02 05:30:34;;;;;;;2.47;1.73;;;9.00;61.20;;;;;;5073247;28;20028;-88
2021/04/02 05:33:01;;;;;;;3.35;1.40;;;8.90;61.20;;;;;;5073030;28;20472;-85
2021/04/02 05:35:27;;;;;;;3.17;1.80;;;8.90;61.20;;;;;;5057534;28;20082;-84
2021/04/02 05:37:52;;;;;;;3.35;1.90;;;8.90;61.20;;;;;;5091816;28;20028;-86
2021/04/02 05:40:19;;;;;;;1.73;1.42;;;8.90;61.20;;;;;;5055879;28;20086;-86
2021/04/02 05:42:59;;;;;;;1.92;1.45;;;8.90;61.20;;;;;;5091717;28;20067;-87
2021/04/02 05:45:26;;;;;;;4.60;1.70;;;8.90;61.30;;;;;;5089714;28;20028;-85
2021/04/02 05:47:53;;;;;;;2.97;1.70;;;8.80;61.20;;;;;;5093079;28;20114;-87
2021/04/02 05:50:21;;;;;;;1.70;1.40;;;8.90;61.30;;;;;;5094206;28;20020;-85
2021/04/02 05:52:52;;;;;;;2.50;1.60;;;8.90;61.30;;;;;;5083442;28;20127;-85
2021/04/02 05:55:18;;;;;;;3.80;1.67;;;8.80;61.30;;;;;;5095491;28;20028;-86
2021/04/02 05:57:47;;;;;;;2.67;1.67;;;8.80;61.30;;;;;;5053196;28;20077;-87
2021/04/02 06:00:14;;;;;;;2.17;1.67;;;8.80;61.30;;;;;;5073527;28;20028;-87
2021/04/02 06:02:41;;;;;;;2.67;1.83;;;8.80;61.30;;;;;;5078545;28;20036;-86
2021/04/02 06:05:09;;;;;;;2.45;1.70;;;8.80;61.40;;;;;;5095331;28;20030;-85
2021/04/02 06:07:38;;;;;;;1.70;1.60;;;8.80;61.40;;;;;;5089279;28;20016;-85
2021/04/02 06:10:06;;;;;;;1.80;1.55;;;8.70;61.40;;;;;;5070875;28;20113;-86
2021/04/02 06:12:35;;;;;;;3.50;1.85;;;8.70;61.40;;;;;;5077996;28;20058;-86
2021/04/02 06:15:05;;;;;;;1.73;1.50;;;8.70;61.40;;;;;;5093255;28;20026;-86
2021/04/02 06:18:06;;;;;;;3.03;1.98;;;8.70;61.40;;;;;;5087611;28;20074;-87
2021/04/02 06:20:44;;;;;;;2.67;1.80;;;8.70;61.50;;;;;;5109901;28;20077;-85
2021/04/02 06:23:18;;;;;;;2.03;1.40;;;8.70;61.40;;;;;;5094092;28;20070;-87
2021/04/02 06:25:50;;;;;;;2.25;1.48;;;8.70;61.50;;;;;;5094700;28;20244;-88
2021/04/02 06:28:26;;;;;;;2.30;1.50;;;8.70;61.50;;;;;;5094674;28;20031;-86
2021/04/02 06:31:02;;;;;;;2.90;1.80;;;8.70;61.60;;;;;;5095112;28;20024;-86
2021/04/02 06:33:32;;;;;;;3.35;1.60;;;8.70;61.70;;;;;;5094672;28;20059;-86
2021/04/02 06:35:57;;;;;;;2.25;1.50;;;8.60;61.60;;;;;;5094885;28;20020;-86
2021/04/02 06:38:29;;;;;;;2.40;1.60;;;8.60;61.60;;;;;;5094448;28;20114;-86
2021/04/02 06:41:04;;;;;;;2.50;1.60;;;8.60;61.70;;;;;;5080637;28;20111;-86
2021/04/02 06:43:44;;;;;;;1.80;1.55;;;8.60;61.70;;;;;;5095657;28;20032;-86
2021/04/02 06:46:23;;;;;;;2.85;1.60;;;8.60;61.70;;;;;;5081876;28;20060;-91
2021/04/02 06:48:50;;;;;;;2.85;1.70;;;8.60;61.60;;;;;;5091476;28;20461;-88
2021/04/02 06:51:21;;;;;;;2.80;1.85;;;8.60;61.60;;;;;;5074113;28;20035;-82
2021/04/02 06:53:50;;;;;;;2.38;1.60;;;8.60;61.80;;;;;;5090765;28;20456;-82
2021/04/02 06:56:18;;;;;;;2.50;1.60;;;8.60;61.70;;;;;;5093648;28;20020;-93
2021/04/02 06:58:45;;;;;;;1.42;1.33;;;8.60;61.70;;;;;;5097344;28;20055;-95
2021/04/02 07:01:16;;;;;;;2.85;1.67;;;8.60;61.80;;;;;;5081698;28;20036;-92
2021/04/02 07:03:43;;;;;;;2.80;1.50;;;8.60;61.80;;;;;;5098861;28;20129;-94
2021/04/02 07:06:11;;;;;;;2.03;1.60;;;8.60;61.80;;;;;;5114985;28;20056;-92
2021/04/02 07:08:41;;;;;;;1.52;1.27;;;8.60;61.80;;;;;;5104111;28;20031;-96
2021/04/02 07:11:09;;;;;;;2.05;1.50;;;8.60;61.80;;;;;;5089120;28;20028;-96
2021/04/02 07:13:42;;;;;;;3.08;1.60;;;8.60;61.80;;;;;;5118800;28;20023;-95
2021/04/02 07:16:10;;;;;;;2.05;1.40;;;8.60;61.80;;;;;;5090867;28;20476;-96
2021/04/02 07:18:37;;;;;;;1.58;1.33;;;8.60;61.80;;;;;;5082951;28;20032;-93
2021/04/02 07:21:05;;;;;;;2.72;1.58;;;8.60;61.80;;;;;;5090798;28;20036;-94
2021/04/02 07:23:31;;;;;;;2.28;1.60;;;8.60;61.90;;;;;;5076011;28;20024;-95
2021/04/02 07:25:57;;;;;;;3.63;1.65;;;8.60;61.80;;;;;;5079139;28;20024;-95
2021/04/02 07:28:25;;;;;;;3.53;1.70;;;8.60;61.80;;;;;;5095380;28;20038;-96
2021/04/02 07:30:52;;;;;;;2.20;1.50;;;8.60;61.90;;;;;;5080486;28;20035;-96
2021/04/02 07:33:20;;;;;;;1.52;1.38;;;8.60;61.90;;;;;;5075513;28;20469;-96
2021/04/02 07:35:56;;;;;;;2.95;1.55;;;8.60;61.90;;;;;;5077798;28;20028;-96
2021/04/02 07:38:28;;;;;;;2.22;1.25;;;8.60;62.00;;;;;;5083434;28;20559;-96
2021/04/02 07:40:55;;;;;;;2.70;1.67;;;8.60;61.90;;;;;;5094487;28;20012;-95
2021/04/02 07:43:28;;;;;;;3.38;1.45;;;8.60;61.90;;;;;;5063416;28;20073;-95
2021/04/02 07:46:00;;;;;;;2.33;1.40;;;8.60;61.90;;;;;;5090887;28;20358;-94
2021/04/02 07:48:27;;;;;;;2.47;1.70;;;8.70;62.00;;;;;;5089116;28;20024;-96
2021/04/02 07:51:01;;;;;;;3.70;1.52;;;8.70;61.90;;;;;;5078124;28;20111;-95
2021/04/02 07:53:26;;;;;;;1.42;1.27;;;8.70;62.00;;;;;;5085042;28;20110;-96
2021/04/02 07:56:16;;;;;;;2.15;1.20;;;8.70;61.90;;;;;;5081236;28;20080;-96
2021/04/02 07:59:09;;;;;;;3.13;1.73;;;8.70;62.00;;;;;;5155060;27;20381;-93
2021/04/02 08:01:35;;;;;;;3.38;1.40;;;8.70;62.00;;;;;;5117258;27;20051;-94
2021/04/02 08:04:02;;;;;;;3.72;1.40;;;8.70;61.90;;;;;;5124919;27;20019;-96
2021/04/02 08:06:38;;;;;;;2.15;1.25;;;8.70;61.90;;;;;;5133140;27;20476;-95
2021/04/02 08:09:07;;;;;;;2.65;1.45;;;8.80;62.00;;;;;;5136286;27;20027;-96
2021/04/02 08:11:44;;;;;;;2.47;1.42;;;8.80;62.60;;;;;;5116455;27;20019;-96
2021/04/02 08:14:14;;;;;;;2.03;1.35;;;8.80;62.00;;;;;;5135269;27;20421;-96
2021/04/02 08:17:09;;;;;;;2.47;1.50;;;8.80;62.00;;;;;;5133609;28;20077;-94
2021/04/02 08:19:38;;;;;;;1.75;1.38;;;8.80;62.10;;;;;;5103120;28;20628;-95
2021/04/02 08:22:05;;;;;;;2.50;1.45;;;8.90;62.00;;;;;;5134911;27;20016;-96
2021/04/02 08:24:37;;;;;;;1.40;1.30;;;8.90;62.00;;;;;;5136837;27;20027;-92
2021/04/02 08:27:04;;;;;;;2.35;1.45;;;8.90;62.10;;;;;;5138729;28;20114;-95
2021/04/02 08:29:30;;;;;;;3.08;1.38;;;8.90;62.10;;;;;;5137706;27;20023;-96
2021/04/02 08:32:02;;;;;;;2.85;1.35;;;8.90;62.10;;;;;;5141197;27;20055;-96
2021/04/02 08:34:31;;;;;;;3.40;1.48;;;9.00;62.20;;;;;;5138737;28;20024;-96
2021/04/02 08:36:59;;;;;;;2.58;1.52;;;9.00;62.10;;;;;;5140137;28;20072;-93
2021/04/02 08:39:26;;;;;;;1.55;1.30;;;9.10;62.20;;;;;;5134653;27;20038;-95
2021/04/02 08:42:00;;;;;;;1.88;1.60;;;9.10;62.10;;;;;;5121189;28;20213;-94
2021/04/02 08:44:29;;;;;;;3.10;1.60;;;9.20;62.20;;;;;;5135669;27;20114;-96
2021/04/02 08:47:01;;;;;;;3.20;1.73;;;9.20;62.10;;;;;;5133742;27;20102;-94
2021/04/02 08:49:36;;;;;;;2.70;1.60;;;9.20;62.10;;;;;;5133490;27;20483;-95
2021/04/02 08:52:10;;;;;;;2.38;1.58;;;9.30;62.10;;;;;;5134355;28;20027;-95
2021/04/02 08:54:36;;;;;;;3.08;1.58;;;9.30;62.00;;;;;;5130904;27;20053;-92
2021/04/02 08:57:03;;;;;;;1.98;1.30;;;9.30;62.00;;;;;;5150669;27;20108;-96
2021/04/02 08:59:30;;;;;;;2.70;1.40;;;9.30;61.90;;;;;;5130733;27;20026;-91
2021/04/02 09:01:56;;;;;;;2.15;1.50;;;9.40;62.00;;;;;;5130485;27;20090;-91
2021/04/02 09:04:23;;;;;;;2.58;1.27;;;9.40;61.90;;;;;;5129043;28;20042;-91
2021/04/02 09:06:49;;;;;;;3.42;1.60;;;9.50;62.00;;;;;;5117955;27;20712;-93
2021/04/02 09:09:19;;;;;;;3.28;1.70;;;9.50;62.60;;;;;;5104276;28;20060;-93
2021/04/02 09:11:55;;;;;;;3.33;1.73;;;9.60;62.00;;;;;;5094921;28;20048;-92
2021/04/02 09:14:22;;;;;;;2.83;1.50;;;9.60;62.00;;;;;;5117947;28;20031;-93
2021/04/02 09:16:49;;;;;;;1.98;1.40;;;9.60;61.90;;;;;;5116517;28;20035;-90
2021/04/02 09:19:16;;;;;;;3.38;1.60;;;9.70;61.90;;;;;;5100831;28;20032;-96
2021/04/02 09:21:43;;;;;;;2.72;1.40;;;9.70;61.90;;;;;;5110682;28;20118;-93
2021/04/02 09:24:10;;;;;;;1.60;1.40;;;9.80;61.90;;;;;;5117308;28;20102;-93
2021/04/02 09:26:42;;;;;;;3.78;1.70;;;9.80;61.80;;;;;;5096107;28;20020;-89
2021/04/02 09:29:13;;;;;;;3.00;1.67;;;9.80;62.40;;;;;;5099709;28;20122;-94
2021/04/02 09:31:43;;;;;;;1.67;1.27;;;9.90;61.70;;;;;;5115029;28;20479;-90
2021/04/02 09:34:18;;;;;;;1.58;1.40;;;9.90;61.70;;;;;;5115850;28;20034;-87
2021/04/02 09:36:44;;;;;;;;;;;9.90;61.70;;;;;;5116228;28;20055;-88
2021/04/02 09:39:13;;;;;;;2.38;1.45;;;9.90;61.50;;;;;;5116150;28;19947;-88
2021/04/02 09:41:57;;;;;;;2.72;1.60;;;10.00;61.50;;;;;;5117062;28;20024;-88
2021/04/02 09:44:36;;;;;;;2.28;1.52;;;10.00;61.60;;;;;;5116206;28;20028;-88
2021/04/02 09:47:12;;;;;;;1.90;1.65;;;10.10;61.70;;;;;;5115367;28;20031;-85
2021/04/02 09:49:39;;;;;;;2.10;1.45;;;10.10;61.70;;;;;;5114869;27;20024;-85
2021/04/02 09:52:07;;;;;;;2.47;1.40;;;10.20;61.70;;;;;;5107574;27;20047;-85
2021/04/02 09:54:34;;;;;;;2.33;1.50;;;10.20;61.70;;;;;;5098316;28;20035;-86
2021/04/02 09:57:08;;;;;;;1.90;1.65;;;10.20;61.70;;;;;;5097622;28;20016;-85
2021/04/02 09:59:35;;;;;;;2.53;1.60;;;10.20;61.70;;;;;;5097860;28;20130;-86
2021/04/02 10:02:02;;;;;;;3.45;1.92;;;10.30;61.60;;;;;;5115166;28;20457;-85
2021/04/02 10:04:28;;;;;;;3.90;1.92;;;10.30;61.60;;;;;;5115157;28;20414;-86
2021/04/02 10:06:54;;;;;;;2.78;1.70;;;10.30;61.60;;;;;;5097971;28;20107;-87
2021/04/02 10:09:20;;;;;;;3.95;1.90;;;10.40;61.60;;;;;;5116315;28;20027;-87
2021/04/02 10:11:49;;;;;;;2.45;1.77;;;10.40;61.60;;;;;;5096712;28;20035;-87
2021/04/02 10:14:17;;;;;;;2.97;1.77;;;10.40;61.50;;;;;;5114694;28;20015;-87
2021/04/02 10:16:46;;;;;;;3.20;1.75;;;10.40;61.50;;;;;;5097548;28;20031;-88
2021/04/02 10:19:16;;;;;;;3.25;1.75;;;10.50;61.50;;;;;;5114329;28;20036;-86
2021/04/02 10:21:42;;;;;;;3.75;2.20;;;10.50;61.50;;;;;;5096828;28;20487;-86
2021/04/02 10:24:11;;;;;;;3.58;1.67;;;10.60;61.40;;;;;;5114405;28;20486;-87
2021/04/02 10:26:37;;;;;;;3.63;2.13;;;10.60;61.40;;;;;;5114514;28;20111;-86
2021/04/02 10:29:04;;;;;;;3.03;1.90;;;10.60;61.30;;;;;;5094276;28;20103;-88
2021/04/02 10:31:30;;;;;;;3.60;1.67;;;10.60;61.30;;;;;;5104866;28;20081;-88
2021/04/02 10:33:56;;;;;;;3.60;2.00;;;10.70;61.30;;;;;;5114366;28;20107;-88
2021/04/02 10:36:22;;;;;;;3.13;1.65;;;10.70;61.20;;;;;;5097864;28;20035;-89
2021/04/02 10:38:48;;;;;;;2.78;2.00;;;10.70;61.20;;;;;;5095124;28;20539;-89
2021/04/02 10:41:15;;;;;;;1.58;1.48;;;10.80;61.10;;;;;;5115914;28;20027;-89
2021/04/02 10:43:41;;;;;;;4.50;1.70;;;10.90;61.20;;;;;;5128169;27;20020;-88
2021/04/02 10:46:06;;;;;;;2.63;1.42;;;10.90;61.10;;;;;;5098300;28;20027;-88
2021/04/02 10:48:32;;;;;;;3.63;1.83;;;10.90;61.00;;;;;;5114416;28;20388;-88
2021/04/02 10:50:58;;;;;;;3.63;1.83;;;11.00;61.10;;;;;;5097485;28;20043;-85
2021/04/02 10:53:26;;;;;;;2.55;1.70;;;11.00;61.00;;;;;;5114424;28;20027;-87
2021/04/02 10:55:52;;;;;;;3.45;1.75;;;11.00;60.90;;;;;;5099692;28;20028;-89
2021/04/02 10:58:18;;;;;;;1.73;1.50;;;11.10;61.00;;;;;;5113537;28;20059;-88
2021/04/02 11:00:44;;;;;;;3.13;1.75;;;11.10;60.90;;;;;;5114872;28;20046;-87
2021/04/02 11:03:11;;;;;;;4.40;1.88;;;11.20;60.90;;;;;;5113512;28;20050;-85
2021/04/02 11:05:37;;;;;;;2.63;1.70;;;11.20;60.80;;;;;;5113518;28;20058;-85
2021/04/02 11:08:03;;;;;;;1.80;1.35;;;11.30;60.80;;;;;;5113483;28;20031;-83
2021/04/02 11:10:29;;;;;;;1.75;1.50;;;11.30;60.70;;;;;;5096041;28;20016;-87
2021/04/02 11:12:55;;;;;;;2.50;1.60;;;11.40;60.70;;;;;;5112690;28;20023;-84
2021/04/02 11:15:21;;;;;;;2.45;1.45;;;11.40;60.60;;;;;;5112613;28;20024;-84
2021/04/02 11:17:49;;;;;;;5.45;1.70;;;11.50;60.60;;;;;;5095835;28;20464;-87
2021/04/02 11:20:17;;;;;;;2.67;1.50;;;11.50;60.50;;;;;;5112857;28;20039;-84
2021/04/02 11:22:44;;;;;;;2.58;1.50;;;11.60;60.50;;;;;;5095704;28;20112;-82
2021/04/02 11:25:11;;;;;;;4.13;1.70;;;11.60;60.50;;;;;;5112886;28;20557;-84
2021/04/02 11:27:37;;;;;;;3.13;1.52;;;11.60;60.50;;;;;;5113083;28;20024;-83
2021/04/02 11:30:05;;;;;;;2.53;1.50;;;11.70;60.40;;;;;;5112460;28;20024;-83
2021/04/02 11:32:31;;;;;;;2.20;1.58;;;11.70;60.40;;;;;;5097761;28;20026;-83
2021/04/02 11:34:57;;;;;;;2.20;1.30;;;11.80;60.40;;;;;;5113403;28;20111;-84
2021/04/02 11:37:23;;;;;;;2.65;1.40;;;11.90;60.40;;;;;;5112616;28;20480;-85
2021/04/02 11:39:49;;;;;;;1.85;1.30;;;11.90;60.40;;;;;;5113216;28;20037;-84
2021/04/02 11:42:15;;;;;;;1.88;1.67;;;12.00;60.40;;;;;;5112860;28;20111;-89
2021/04/02 11:44:41;;;;;;;1.75;1.42;;;12.00;60.40;;;;;;5111616;28;20115;-81
2021/04/02 11:47:07;;;;;;;2.47;1.20;;;12.10;60.40;;;;;;5113353;28;20034;-86
2021/04/02 11:49:33;;;;;;;1.33;1.23;;;12.20;60.40;;;;;;5112323;28;20106;-84
2021/04/02 11:51:58;;;;;;;3.78;1.60;;;12.20;60.30;;;;;;5095136;28;20206;-85
2021/04/02 11:54:26;;;;;;;1.23;1.17;;;12.20;60.30;;;;;;5112593;28;20544;-88
2021/04/02 11:56:52;;;;;;;2.03;1.30;;;12.30;60.30;;;;;;5095455;28;20494;-85
2021/04/02 11:59:18;;;;;;;1.98;1.30;;;12.30;60.20;;;;;;5112236;28;20048;-86
2021/04/02 12:01:43;;;;;;;3.55;1.45;;;12.40;60.20;;;;;;5091497;28;20049;-86
2021/04/02 12:04:10;;;;;;;2.45;1.52;;;12.40;60.20;;;;;;5112515;28;20107;-84
2021/04/02 12:06:37;;;;;;;4.30;1.52;;;12.50;60.30;;;;;;5097983;28;20027;-84
2021/04/02 12:09:04;;;;;;;3.42;1.80;;;12.60;60.20;;;;;;5092116;28;20036;-84
2021/04/02 12:11:30;;;;;;;2.47;1.42;;;12.60;60.20;;;;;;5112095;28;20468;-86
2021/04/02 12:13:56;;;;;;;2.55;1.40;;;12.70;60.30;;;;;;5111966;28;20590;-88
2021/04/02 12:16:21;;;;;;;1.95;1.42;;;12.70;60.20;;;;;;5095553;28;20107;-87
2021/04/02 12:18:47;;;;;;;2.72;1.60;;;12.80;60.20;;;;;;5124660;28;20032;-87
2021/04/02 12:21:13;;;;;;;2.13;1.50;;;12.80;60.10;;;;;;5103153;28;20054;-84
2021/04/02 12:23:39;;;;;;;3.50;1.50;;;12.90;60.00;;;;;;5095305;28;20059;-86
2021/04/02 12:26:05;;;;;;;2.63;1.30;;;12.90;60.00;;;;;;5112361;28;20067;-85
2021/04/02 12:28:32;;;;;;;2.58;1.55;;;13.00;59.90;;;;;;5146722;27;20055;-85
2021/04/02 12:31:01;;;;;;;2.45;1.60;;;13.10;59.80;;;;;;5095324;28;20016;-85
2021/04/02 12:33:27;;;;;;;1.63;1.30;;;13.10;59.70;;;;;;5112211;28;20041;-86
2021/04/02 12:35:53;;;;;;;3.28;1.70;;;13.20;59.70;;;;;;5107877;28;20082;-86
2021/04/02 12:38:18;;;;;;;3.30;1.52;;;13.20;59.60;;;;;;5083081;28;20032;-86
2021/04/02 12:40:44;;;;;;;3.00;1.45;;;13.30;59.70;;;;;;5126392;28;20019;-85
2021/04/02 12:43:10;;;;;;;2.05;1.45;;;13.30;59.60;;;;;;5095062;28;20035;-86
2021/04/02 12:45:35;;;;;;;2.35;1.48;;;13.30;59.60;;;;;;5098136;28;20376;-86
2021/04/02 12:48:02;;;;;;;2.63;1.60;;;13.40;59.50;;;;;;5099149;28;20032;-86
2021/04/02 12:50:28;;;;;;;3.08;1.30;;;13.40;59.30;;;;;;5143903;27;20432;-88
2021/04/02 12:52:55;;;;;;;3.50;1.48;;;13.50;59.20;;;;;;5099224;28;20028;-87
2021/04/02 12:55:24;;;;;;;2.70;1.73;;;13.50;59.20;;;;;;5117649;28;20098;-88
2021/04/02 12:57:51;;;;;;;1.98;1.40;;;13.50;59.20;;;;;;5100900;28;20090;-86
2021/04/02 13:00:20;;;;;;;3.28;1.65;;;13.60;59.20;;;;;;5117110;28;20409;-89
2021/04/02 13:02:46;;;;;;;3.20;1.55;;;13.60;59.10;;;;;;5116715;28;20024;-89